Time;durP1;ratioP1;P1;durP2;ratioP2;P2;SDS_P1;SDS_P2;PMS_P1;PMS_P2;Temp;Humidity;BMP_temperature;BMP_pressure;BME280_temperature;BME280_humidity;BME280_pressure;Samples;Min_cycle;Max_cycle;Signal;HPM_P1;HPM_P2
2023/06/14 00:00:11;;;;;;;0.30;0.30;;;16.20;95.80;;;;;;4412098;32;20076;-74
2023/06/14 00:02:38;;;;;;;0.55;0.55;;;16.20;96.00;;;;;;4415444;32;20417;-75
2023/06/14 00:05:05;;;;;;;0.50;0.50;;;16.10;96.10;;;;;;4413449;32;20530;-74
2023/06/14 00:07:36;;;;;;;0.30;0.30;;;16.10;96.20;;;;;;4413275;32;20636;-74
2023/06/14 00:10:03;;;;;;;0.32;0.32;;;16.10;96.40;;;;;;4413258;32;20506;-74
2023/06/14 00:12:28;;;;;;;0.77;0.50;;;16.00;97.00;;;;;;4398762;32;20119;-75
2023/06/14 00:14:54;;;;;;;3.15;0.40;;;16.00;97.10;;;;;;4412642;32;20081;-74
2023/06/14 00:17:20;;;;;;;0.40;0.40;;;16.00;97.40;;;;;;4413440;32;20097;-74
2023/06/14 00:19:46;;;;;;;0.30;0.30;;;16.00;97.60;;;;;;4411072;32;20102;-76
2023/06/14 00:22:12;;;;;;;0.32;0.32;;;16.10;97.60;;;;;;4411321;32;20090;-74
2023/06/14 00:24:37;;;;;;;0.30;0.30;;;16.00;97.80;;;;;;4411370;32;20542;-74
2023/06/14 00:27:03;;;;;;;1.00;0.40;;;16.00;98.20;;;;;;4412338;32;20091;-74
2023/06/14 00:29:28;;;;;;;0.37;0.37;;;16.00;98.30;;;;;;4411089;32;20069;-74
2023/06/14 00:31:54;;;;;;;0.32;0.32;;;16.00;98.40;;;;;;4412011;32;20086;-75
2023/06/14 00:34:19;;;;;;;0.70;0.70;;;16.10;98.40;;;;;;4408699;32;20074;-74
2023/06/14 00:36:45;;;;;;;0.40;0.40;;;16.20;98.40;;;;;;4412763;32;20133;-75
2023/06/14 00:39:11;;;;;;;0.40;0.40;;;16.10;98.80;;;;;;4412355;32;20142;-74
2023/06/14 00:41:37;;;;;;;0.30;0.30;;;16.10;99.00;;;;;;4411399;32;20082;-76
2023/06/14 00:44:03;;;;;;;0.30;0.30;;;16.00;99.30;;;;;;4411777;32;20518;-75
2023/06/14 00:46:28;;;;;;;0.70;0.70;;;16.00;99.70;;;;;;4412673;32;20086;-75
2023/06/14 00:48:55;;;;;;;0.30;0.30;;;15.90;99.90;;;;;;4408478;32;20077;-75
2023/06/14 00:51:21;;;;;;;0.37;0.37;;;15.80;99.90;;;;;;4399498;32;20094;-76
2023/06/14 00:53:47;;;;;;;18.52;0.85;;;15.90;99.90;;;;;;4409479;32;20394;-75
2023/06/14 00:56:14;;;;;;;0.32;0.32;;;15.80;99.90;;;;;;4410920;32;20089;-75
2023/06/14 00:58:40;;;;;;;0.35;0.35;;;15.70;99.90;;;;;;4412247;32;20072;-75
2023/06/14 01:01:06;;;;;;;0.30;0.30;;;15.70;99.90;;;;;;4409252;32;20081;-76
2023/06/14 01:03:32;;;;;;;1.75;0.77;;;15.70;99.90;;;;;;4413054;32;20526;-75
2023/06/14 01:06:26;;;;;;;1.20;1.05;;;15.70;99.90;;;;;;4408287;32;20086;-75
2023/06/14 01:09:14;;;;;;;0.40;0.40;;;15.80;99.90;;;;;;4401367;32;20550;-76
2023/06/14 01:11:50;;;;;;;0.40;0.40;;;15.80;99.90;;;;;;4413405;32;20078;-76
2023/06/14 01:14:17;;;;;;;0.40;0.40;;;15.70;99.90;;;;;;4411257;32;20538;-76
2023/06/14 01:16:45;;;;;;;0.35;0.35;;;15.60;99.90;;;;;;4409033;32;20097;-75
2023/06/14 01:19:13;;;;;;;0.47;0.47;;;15.60;99.90;;;;;;4410507;32;20077;-75
2023/06/14 01:21:41;;;;;;;0.52;0.40;;;15.60;99.90;;;;;;4408953;32;20107;-75
2023/06/14 01:24:08;;;;;;;0.50;0.50;;;15.50;99.90;;;;;;4414811;32;20065;-75
2023/06/14 01:26:37;;;;;;;0.30;0.30;;;15.50;99.90;;;;;;4412148;32;20077;-74
2023/06/14 01:29:03;;;;;;;0.30;0.30;;;15.50;99.90;;;;;;4411583;32;20070;-75
2023/06/14 01:31:29;;;;;;;0.52;0.45;;;15.50;99.90;;;;;;4411261;32;20070;-75
2023/06/14 01:33:55;;;;;;;0.32;0.32;;;15.50;99.90;;;;;;4410626;32;20113;-76
2023/06/14 01:36:23;;;;;;;0.90;0.85;;;15.60;99.90;;;;;;4411089;32;20090;-76
2023/06/14 01:38:51;;;;;;;0.28;0.28;;;15.60;99.90;;;;;;4413813;32;20125;-76
2023/06/14 01:41:18;;;;;;;0.40;0.40;;;15.60;99.90;;;;;;4411167;32;20548;-76
2023/06/14 01:43:45;;;;;;;0.30;0.30;;;15.50;99.90;;;;;;4411312;32;20415;-76
2023/06/14 01:46:11;;;;;;;0.30;0.30;;;15.50;99.90;;;;;;4410370;32;20085;-76
2023/06/14 01:48:37;;;;;;;0.30;0.30;;;15.40;99.90;;;;;;4410977;32;20101;-76
2023/06/14 01:51:03;;;;;;;0.30;0.30;;;15.40;99.90;;;;;;4411261;32;20073;-76
2023/06/14 01:53:28;;;;;;;3.28;0.43;;;15.50;99.90;;;;;;4413255;32;20111;-76
2023/06/14 01:55:54;;;;;;;0.30;0.30;;;15.40;99.90;;;;;;4411143;32;20114;-76
2023/06/14 01:58:21;;;;;;;0.70;0.70;;;15.40;99.90;;;;;;4409347;32;20069;-76
2023/06/14 02:00:47;;;;;;;0.40;0.40;;;15.40;99.90;;;;;;4409750;32;20113;-76
2023/06/14 02:03:13;;;;;;;0.40;0.40;;;15.30;99.90;;;;;;4413094;32;20497;-77
2023/06/14 02:05:39;;;;;;;0.43;0.43;;;15.20;99.90;;;;;;4411512;32;20101;-76
2023/06/14 02:08:05;;;;;;;1.25;0.77;;;15.20;99.90;;;;;;4414585;32;20754;-77
2023/06/14 02:10:31;;;;;;;1.23;0.95;;;15.20;99.90;;;;;;4410917;32;20106;-76
2023/06/14 02:12:56;;;;;;;2.47;0.50;;;15.10;99.90;;;;;;4413295;32;20070;-76
2023/06/14 02:15:23;;;;;;;0.45;0.45;;;15.10;99.90;;;;;;4411843;32;20082;-75
2023/06/14 02:17:49;;;;;;;0.40;0.40;;;15.00;99.90;;;;;;4414298;32;20069;-76
2023/06/14 02:20:15;;;;;;;0.65;0.65;;;15.00;99.90;;;;;;4411566;32;20439;-76
2023/06/14 02:22:40;;;;;;;8.73;0.73;;;15.10;99.90;;;;;;4414119;32;20069;-76
2023/06/14 02:25:07;;;;;;;0.50;0.50;;;15.10;99.90;;;;;;4411807;32;20483;-76
2023/06/14 02:27:33;;;;;;;2.00;0.77;;;15.10;99.90;;;;;;4410450;32;20066;-76
2023/06/14 02:29:59;;;;;;;1.37;0.73;;;15.00;99.90;;;;;;4410750;32;20471;-76
2023/06/14 02:32:26;;;;;;;0.40;0.40;;;15.10;99.90;;;;;;4413371;32;20120;-76
2023/06/14 02:34:53;;;;;;;0.60;0.60;;;15.10;99.90;;;;;;4414299;32;20124;-76
2023/06/14 02:37:19;;;;;;;0.50;0.50;;;15.00;99.90;;;;;;4411564;32;20604;-76
2023/06/14 02:39:44;;;;;;;0.30;0.30;;;15.00;99.90;;;;;;4412837;32;20136;-76
2023/06/14 02:42:10;;;;;;;0.40;0.40;;;15.10;99.90;;;;;;4408866;32;20557;-76
2023/06/14 02:44:36;;;;;;;1.55;0.62;;;15.20;99.90;;;;;;4413471;32;20106;-77
2023/06/14 02:47:01;;;;;;;0.75;0.75;;;15.10;99.90;;;;;;4411274;32;20102;-76
2023/06/14 02:49:27;;;;;;;0.40;0.40;;;15.10;99.90;;;;;;4409932;32;20082;-76
2023/06/14 02:51:52;;;;;;;0.40;0.40;;;15.00;99.90;;;;;;4412700;32;20510;-76
2023/06/14 02:54:18;;;;;;;0.57;0.57;;;15.00;99.90;;;;;;4412048;32;20151;-76
2023/06/14 02:56:44;;;;;;;0.30;0.30;;;15.00;99.90;;;;;;4410337;32;20065;-77
2023/06/14 02:59:09;;;;;;;1.12;0.90;;;14.90;99.90;;;;;;4415631;32;20808;-76
2023/06/14 03:01:35;;;;;;;0.40;0.40;;;15.00;99.90;;;;;;4414458;32;20136;-77
2023/06/14 03:04:03;;;;;;;0.50;0.50;;;14.90;99.90;;;;;;4413648;32;20085;-76
2023/06/14 03:06:30;;;;;;;17.42;0.82;;;14.80;99.90;;;;;;4413708;32;20465;-76
2023/06/14 03:08:59;;;;;;;8.68;0.88;;;14.80;99.90;;;;;;4414655;32;20105;-76
2023/06/14 03:11:25;;;;;;;0.65;0.65;;;14.80;99.90;;;;;;4413425;32;20074;-76
2023/06/14 03:13:50;;;;;;;0.30;0.30;;;14.90;99.90;;;;;;4415580;32;20129;-76
2023/06/14 03:16:19;;;;;;;0.77;0.77;;;14.80;99.90;;;;;;4415681;32;20080;-76
2023/06/14 03:18:45;;;;;;;0.40;0.40;;;14.90;99.90;;;;;;4417397;32;20077;-77
2023/06/14 03:21:10;;;;;;;6.72;0.40;;;14.80;99.90;;;;;;4410160;32;20106;-76
2023/06/14 03:23:36;;;;;;;0.40;0.40;;;14.80;99.90;;;;;;4412662;32;20297;-77
2023/06/14 03:26:01;;;;;;;0.35;0.35;;;14.90;99.90;;;;;;4413688;32;20061;-76
2023/06/14 03:28:27;;;;;;;0.88;0.43;;;15.00;99.90;;;;;;4415109;32;20082;-76
2023/06/14 03:30:52;;;;;;;0.62;0.57;;;15.00;99.90;;;;;;4416183;32;20078;-77
2023/06/14 03:33:19;;;;;;;0.40;0.40;;;15.00;99.90;;;;;;4412553;32;20066;-77
2023/06/14 03:35:45;;;;;;;0.65;0.60;;;15.10;99.90;;;;;;4412305;32;20144;-77
2023/06/14 03:38:10;;;;;;;1.35;1.25;;;15.00;99.90;;;;;;4411675;32;20172;-77
2023/06/14 03:40:36;;;;;;;0.57;0.57;;;15.00;99.90;;;;;;4412282;32;20106;-75
2023/06/14 03:43:02;;;;;;;0.52;0.52;;;15.00;99.90;;;;;;4413758;32;20090;-75
2023/06/14 03:45:28;;;;;;;0.37;0.37;;;15.10;99.90;;;;;;4413832;32;20521;-75
2023/06/14 03:47:54;;;;;;;0.60;0.60;;;15.10;99.90;;;;;;4411674;32;20133;-75
2023/06/14 03:50:20;;;;;;;0.40;0.40;;;15.10;99.90;;;;;;4412551;32;20513;-75
2023/06/14 03:52:48;;;;;;;0.55;0.55;;;15.10;99.90;;;;;;4415469;32;20244;-76
2023/06/14 03:55:15;;;;;;;0.47;0.43;;;15.20;99.90;;;;;;4413721;32;20114;-75
2023/06/14 03:57:41;;;;;;;1.98;0.73;;;15.10;99.90;;;;;;4415112;32;20212;-75
2023/06/14 04:00:09;;;;;;;0.47;0.47;;;15.10;99.90;;;;;;4413913;32;20098;-75
2023/06/14 04:02:36;;;;;;;0.60;0.55;;;15.10;99.90;;;;;;4412292;32;20553;-75
2023/06/14 04:05:02;;;;;;;0.50;0.50;;;15.20;99.90;;;;;;4413516;32;20084;-75
2023/06/14 04:07:28;;;;;;;0.30;0.30;;;15.20;99.90;;;;;;4410666;32;20089;-75
2023/06/14 04:09:54;;;;;;;2.08;0.80;;;15.20;99.90;;;;;;4414661;32;20509;-76
2023/06/14 04:12:20;;;;;;;0.82;0.70;;;15.10;99.90;;;;;;4413190;32;20077;-75
2023/06/14 04:14:46;;;;;;;0.70;0.55;;;15.10;99.90;;;;;;4413178;32;20513;-75
2023/06/14 04:17:11;;;;;;;0.80;0.80;;;15.20;99.90;;;;;;4412806;32;20102;-75
2023/06/14 04:19:37;;;;;;;1.27;1.17;;;15.20;99.90;;;;;;4413219;32;20137;-75
2023/06/14 04:22:03;;;;;;;0.20;0.20;;;15.20;99.90;;;;;;4406672;32;20090;-75
2023/06/14 04:24:31;;;;;;;1.17;0.95;;;15.20;99.90;;;;;;4412207;32;20089;-75
2023/06/14 04:26:58;;;;;;;0.47;0.47;;;15.30;99.90;;;;;;4410948;32;20069;-75
2023/06/14 04:29:26;;;;;;;1.85;0.80;;;15.20;99.90;;;;;;4413543;32;20101;-75
2023/06/14 04:31:54;;;;;;;0.30;0.30;;;15.30;99.90;;;;;;4412579;32;20081;-75
2023/06/14 04:34:21;;;;;;;0.57;0.50;;;15.40;99.90;;;;;;4411297;32;20076;-75
2023/06/14 04:36:52;;;;;;;0.50;0.50;;;15.50;99.90;;;;;;4411402;32;20143;-75
2023/06/14 04:39:19;;;;;;;0.37;0.37;;;15.60;99.90;;;;;;4413151;32;20089;-75
2023/06/14 04:41:45;;;;;;;0.40;0.40;;;15.70;99.90;;;;;;4414367;32;20099;-76
2023/06/14 04:44:10;;;;;;;1.25;0.80;;;15.70;99.90;;;;;;4412369;32;20070;-76
2023/06/14 04:46:45;;;;;;;0.88;0.47;;;15.70;99.90;;;;;;4411171;32;20214;-75
2023/06/14 04:49:14;;;;;;;0.40;0.40;;;15.80;99.90;;;;;;4409239;32;20077;-76
2023/06/14 04:51:40;;;;;;;0.73;0.60;;;15.90;99.90;;;;;;4415323;32;20066;-76
2023/06/14 04:54:09;;;;;;;0.40;0.40;;;15.90;99.90;;;;;;4410452;32;20074;-76
2023/06/14 04:56:37;;;;;;;0.40;0.40;;;16.00;99.90;;;;;;4413243;32;20094;-76
2023/06/14 04:59:04;;;;;;;0.35;0.35;;;16.10;99.90;;;;;;4411375;32;20304;-76
2023/06/14 05:01:31;;;;;;;0.60;0.50;;;16.10;99.90;;;;;;4407989;32;20077;-76
2023/06/14 05:03:57;;;;;;;0.52;0.52;;;16.20;99.90;;;;;;4411087;32;20127;-76
2023/06/14 05:06:23;;;;;;;0.52;0.40;;;16.20;99.90;;;;;;4409779;32;20511;-76
2023/06/14 05:08:49;;;;;;;0.20;0.20;;;16.30;99.90;;;;;;4409663;32;20581;-76
2023/06/14 05:11:16;;;;;;;0.47;0.47;;;16.30;99.90;;;;;;4409591;32;20144;-76
2023/06/14 05:13:43;;;;;;;0.30;0.30;;;16.30;99.90;;;;;;4411510;32;20525;-76
2023/06/14 05:16:11;;;;;;;0.50;0.50;;;16.40;99.90;;;;;;4408703;32;20599;-75
2023/06/14 05:18:37;;;;;;;0.95;0.68;;;16.50;99.90;;;;;;4401637;32;20085;-76
2023/06/14 05:21:04;;;;;;;0.55;0.55;;;16.40;99.90;;;;;;4408596;32;20129;-76
2023/06/14 05:23:30;;;;;;;0.40;0.40;;;16.40;99.90;;;;;;4412725;32;20438;-75
2023/06/14 05:25:56;;;;;;;0.30;0.30;;;16.40;99.90;;;;;;4409635;32;20093;-76
2023/06/14 05:28:23;;;;;;;1.65;0.85;;;16.50;99.90;;;;;;4401236;32;20070;-76
2023/06/14 05:30:48;;;;;;;0.45;0.45;;;16.50;99.90;;;;;;4396914;32;20081;-77
2023/06/14 05:33:14;;;;;;;0.45;0.45;;;16.60;99.90;;;;;;4393740;32;20486;-76
2023/06/14 05:35:40;;;;;;;0.40;0.40;;;16.70;99.90;;;;;;4401380;32;20097;-77
2023/06/14 05:38:07;;;;;;;0.40;0.40;;;16.70;99.90;;;;;;4401911;32;20086;-75
2023/06/14 05:40:35;;;;;;;0.20;0.20;;;16.70;99.90;;;;;;4404133;32;20065;-75
2023/06/14 05:43:02;;;;;;;0.30;0.30;;;16.70;99.90;;;;;;4397818;32;20545;-76
2023/06/14 05:45:30;;;;;;;1.77;0.50;;;16.90;99.90;;;;;;4388460;32;20122;-76
2023/06/14 05:47:56;;;;;;;0.40;0.40;;;17.00;99.90;;;;;;4395399;32;20331;-76
2023/06/14 05:50:23;;;;;;;13.25;1.67;;;17.10;99.90;;;;;;4403136;32;20462;-75
2023/06/14 05:52:49;;;;;;;0.22;0.22;;;17.10;99.90;;;;;;4399157;32;20598;-76
2023/06/14 05:55:16;;;;;;;0.30;0.30;;;17.10;99.90;;;;;;4393986;32;21152;-76
2023/06/14 05:57:42;;;;;;;0.37;0.37;;;17.10;99.90;;;;;;4370841;32;20114;-75
2023/06/14 06:00:11;;;;;;;2.72;1.50;;;17.10;99.90;;;;;;4385983;32;20106;-77
2023/06/14 06:02:37;;;;;;;0.55;0.52;;;17.10;99.90;;;;;;4378011;32;20818;-75
2023/06/14 06:05:03;;;;;;;0.40;0.40;;;17.10;99.90;;;;;;4388752;32;20941;-75
2023/06/14 06:07:28;;;;;;;0.30;0.30;;;17.20;99.90;;;;;;4385630;32;20132;-77
2023/06/14 06:09:54;;;;;;;1.65;0.75;;;17.10;99.90;;;;;;4385458;32;20393;-76
2023/06/14 06:12:19;;;;;;;0.30;0.30;;;17.10;99.90;;;;;;4392288;32;20925;-76
2023/06/14 06:14:45;;;;;;;4.95;1.67;;;17.10;99.90;;;;;;4390864;32;20544;-75
2023/06/14 06:17:10;;;;;;;0.50;0.50;;;17.10;99.90;;;;;;4389850;32;20368;-75
2023/06/14 06:19:36;;;;;;;11.40;1.80;;;17.20;99.90;;;;;;4391070;32;20089;-76
2023/06/14 06:22:02;;;;;;;1.40;1.05;;;17.20;99.90;;;;;;4397933;32;20584;-77
2023/06/14 06:24:27;;;;;;;0.30;0.30;;;17.20;99.90;;;;;;4389568;32;20086;-76
2023/06/14 06:26:53;;;;;;;1.65;0.65;;;17.20;99.90;;;;;;4390420;32;20201;-77
2023/06/14 06:29:19;;;;;;;0.47;0.47;;;17.20;99.90;;;;;;4383938;32;20227;-76
2023/06/14 06:31:45;;;;;;;0.70;0.70;;;17.30;99.90;;;;;;4394884;32;20085;-76
2023/06/14 06:34:11;;;;;;;0.40;0.40;;;17.30;99.90;;;;;;4394064;32;20204;-77
2023/06/14 06:36:36;;;;;;;0.40;0.40;;;17.40;99.90;;;;;;4392517;32;20352;-77
2023/06/14 06:39:09;;;;;;;0.30;0.30;;;17.40;99.90;;;;;;4383404;32;20740;-77
2023/06/14 06:41:37;;;;;;;0.37;0.37;;;17.40;99.90;;;;;;4386838;32;20132;-76
2023/06/14 06:44:02;;;;;;;0.50;0.50;;;17.30;99.90;;;;;;4387729;32;20246;-77
2023/06/14 06:46:28;;;;;;;0.77;0.77;;;17.30;99.90;;;;;;4386440;32;20062;-76
2023/06/14 06:48:54;;;;;;;0.73;0.70;;;17.20;99.90;;;;;;4380735;32;20113;-76
2023/06/14 06:51:19;;;;;;;2.83;0.50;;;17.10;99.90;;;;;;4378399;32;20090;-75
2023/06/14 06:53:52;;;;;;;0.82;0.68;;;17.10;99.90;;;;;;4386279;32;20893;-76
2023/06/14 06:56:19;;;;;;;0.43;0.43;;;17.20;99.90;;;;;;4383906;32;25150;-75
2023/06/14 06:58:45;;;;;;;0.55;0.50;;;17.30;99.90;;;;;;4380140;32;20354;-75
2023/06/14 07:01:11;;;;;;;6.35;0.65;;;17.40;99.90;;;;;;4384179;32;20589;-77
2023/06/14 07:03:37;;;;;;;1.45;0.68;;;17.50;99.90;;;;;;4395877;32;20109;-78
2023/06/14 07:06:03;;;;;;;0.95;0.93;;;17.50;99.90;;;;;;4388727;32;21236;-77
2023/06/14 07:08:29;;;;;;;0.35;0.35;;;17.60;99.90;;;;;;4389913;32;20113;-76
2023/06/14 07:10:55;;;;;;;0.73;0.73;;;17.70;99.90;;;;;;4395444;32;20057;-77
2023/06/14 07:13:20;;;;;;;1.65;0.70;;;17.80;99.90;;;;;;4389615;32;20164;-76
2023/06/14 07:15:46;;;;;;;2.17;0.88;;;17.70;99.90;;;;;;4398945;32;20097;-76
2023/06/14 07:18:12;;;;;;;0.50;0.50;;;17.80;99.90;;;;;;4392460;32;20207;-76
2023/06/14 07:20:38;;;;;;;0.45;0.45;;;18.00;99.90;;;;;;4397775;32;20152;-76
2023/06/14 07:23:04;;;;;;;0.65;0.40;;;18.00;99.90;;;;;;4397399;32;20102;-76
2023/06/14 07:25:30;;;;;;;1.33;0.90;;;18.10;99.90;;;;;;4402745;32;20101;-77
2023/06/14 07:27:56;;;;;;;22.55;0.62;;;18.30;99.90;;;;;;4405713;32;20090;-77
2023/06/14 07:30:25;;;;;;;0.60;0.60;;;18.30;99.90;;;;;;4403868;32;20431;-77
2023/06/14 07:32:52;;;;;;;2.97;1.50;;;18.30;99.90;;;;;;4404011;32;20128;-76
2023/06/14 07:35:18;;;;;;;0.90;0.57;;;18.40;99.90;;;;;;4404832;32;20399;-75
2023/06/14 07:37:46;;;;;;;0.80;0.47;;;18.40;99.90;;;;;;4406254;32;20663;-76
2023/06/14 07:40:13;;;;;;;1.40;0.77;;;18.60;99.90;;;;;;4405635;32;20179;-76
2023/06/14 07:42:40;;;;;;;0.60;0.60;;;18.70;99.90;;;;;;4405148;32;20090;-77
2023/06/14 07:45:06;;;;;;;0.80;0.40;;;19.00;99.90;;;;;;4408959;32;20567;-76
2023/06/14 07:47:32;;;;;;;0.65;0.65;;;18.90;99.90;;;;;;4393332;32;20243;-76
2023/06/14 07:49:58;;;;;;;3.42;0.50;;;18.90;99.90;;;;;;4384512;32;21073;-76
2023/06/14 07:52:25;;;;;;;0.55;0.50;;;18.70;99.90;;;;;;4383184;32;20101;-77
2023/06/14 07:54:51;;;;;;;0.52;0.52;;;18.60;99.90;;;;;;4378943;32;20137;-76
2023/06/14 07:57:19;;;;;;;3.90;0.60;;;18.70;99.90;;;;;;4377948;32;20078;-77
2023/06/14 07:59:46;;;;;;;0.50;0.50;;;18.70;99.90;;;;;;4372707;32;21288;-74
2023/06/14 08:02:11;;;;;;;20.92;1.75;;;18.70;99.90;;;;;;4374300;32;20197;-77
2023/06/14 08:04:37;;;;;;;1.65;1.27;;;18.80;99.90;;;;;;4374028;32;20125;-79
2023/06/14 08:07:05;;;;;;;1.42;0.98;;;18.80;99.90;;;;;;4386198;32;20794;-77
2023/06/14 08:09:30;;;;;;;1.35;0.60;;;19.00;99.90;;;;;;4374349;32;20649;-77
2023/06/14 08:11:56;;;;;;;0.47;0.47;;;19.00;99.90;;;;;;4377551;32;20105;-77
2023/06/14 08:14:24;;;;;;;0.30;0.30;;;19.20;99.90;;;;;;4389364;32;20078;-78
2023/06/14 08:16:50;;;;;;;1.42;0.70;;;19.20;99.90;;;;;;4390699;32;20113;-77
2023/06/14 08:19:17;;;;;;;0.82;0.40;;;19.30;99.90;;;;;;4384407;32;20120;-77
2023/06/14 08:21:43;;;;;;;0.40;0.40;;;19.20;99.90;;;;;;4382603;32;20838;-76
2023/06/14 08:24:12;;;;;;;0.73;0.57;;;19.20;99.90;;;;;;4389618;32;20094;-76
2023/06/14 08:26:39;;;;;;;0.50;0.50;;;19.20;99.90;;;;;;4389984;32;20081;-76
2023/06/14 08:29:05;;;;;;;3.72;0.70;;;19.40;99.90;;;;;;4398603;32;20078;-76
2023/06/14 08:31:31;;;;;;;2.28;1.25;;;19.40;99.90;;;;;;4400934;32;20317;-77
2023/06/14 08:33:57;;;;;;;1.67;0.60;;;19.40;99.90;;;;;;4394440;32;20097;-74
2023/06/14 08:36:23;;;;;;;0.30;0.30;;;19.40;99.90;;;;;;4393728;32;20100;-75
2023/06/14 08:38:49;;;;;;;0.47;0.47;;;19.40;99.90;;;;;;4398336;32;20564;-77
2023/06/14 08:41:24;;;;;;;1.95;0.90;;;19.40;99.90;;;;;;4392498;32;20105;-77
2023/06/14 08:43:50;;;;;;;0.30;0.30;;;19.50;99.90;;;;;;4384317;32;20777;-73
2023/06/14 08:46:19;;;;;;;0.55;0.55;;;19.60;99.90;;;;;;4382520;32;20101;-76
2023/06/14 08:48:52;;;;;;;1.05;0.65;;;19.60;99.90;;;;;;4398423;32;20654;-75
2023/06/14 08:51:22;;;;;;;0.40;0.40;;;19.70;99.90;;;;;;4393590;32;20097;-79
2023/06/14 08:53:52;;;;;;;0.30;0.30;;;19.80;99.90;;;;;;4390676;32;20089;-78
2023/06/14 08:56:20;;;;;;;0.40;0.40;;;19.90;99.90;;;;;;4396869;32;20101;-78
2023/06/14 08:58:47;;;;;;;0.50;0.50;;;19.90;99.90;;;;;;4392514;32;21221;-76
2023/06/14 09:01:16;;;;;;;1.23;0.73;;;20.00;99.90;;;;;;4391675;32;20089;-78
2023/06/14 09:03:42;;;;;;;5.53;1.67;;;20.20;99.90;;;;;;4392736;32;20108;-77
2023/06/14 09:06:13;;;;;;;0.85;0.47;;;20.30;99.90;;;;;;4397247;32;20664;-77
2023/06/14 09:08:42;;;;;;;0.40;0.40;;;20.50;99.90;;;;;;4397443;32;20098;-74
2023/06/14 09:11:10;;;;;;;0.30;0.30;;;20.60;99.90;;;;;;4394414;32;20098;-76
2023/06/14 09:13:36;;;;;;;0.40;0.40;;;20.70;99.60;;;;;;4397110;32;20483;-78
2023/06/14 09:16:03;;;;;;;1.30;0.50;;;20.80;99.60;;;;;;4395165;32;20101;-79
2023/06/14 09:18:39;;;;;;;0.40;0.40;;;20.90;99.00;;;;;;4396182;32;20078;-76
2023/06/14 09:21:13;;;;;;;0.40;0.40;;;20.90;98.30;;;;;;4399385;32;20105;-77
2023/06/14 09:23:43;;;;;;;0.47;0.47;;;20.80;97.60;;;;;;4386297;32;20836;-76
2023/06/14 09:26:10;;;;;;;;;;;20.80;98.20;;;;;;4380894;32;20832;-76
2023/06/14 09:28:40;;;;;;;0.30;0.30;;;20.90;97.80;;;;;;4384114;32;19961;-77
2023/06/14 09:31:08;;;;;;;0.32;0.32;;;20.80;97.60;;;;;;4388795;32;20081;-75
2023/06/14 09:33:34;;;;;;;0.40;0.40;;;20.90;98.00;;;;;;4387077;32;20101;-76
2023/06/14 09:36:01;;;;;;;0.30;0.30;;;20.80;98.30;;;;;;4395885;32;20089;-76
2023/06/14 09:38:26;;;;;;;0.98;0.55;;;20.90;98.10;;;;;;4400289;32;20662;-75
2023/06/14 09:40:55;;;;;;;0.45;0.45;;;20.90;98.30;;;;;;4392266;32;20097;-75
2023/06/14 09:43:21;;;;;;;2.15;0.88;;;20.90;97.90;;;;;;4393589;32;20563;-76
2023/06/14 09:45:48;;;;;;;0.32;0.32;;;20.90;98.10;;;;;;4382690;32;20105;-76
2023/06/14 09:48:17;;;;;;;0.43;0.43;;;20.90;98.10;;;;;;4383914;32;20345;-77
2023/06/14 09:50:45;;;;;;;0.30;0.30;;;20.80;98.10;;;;;;4390652;32;20451;-75
2023/06/14 09:53:12;;;;;;;0.60;0.43;;;20.90;98.20;;;;;;4396392;32;20142;-76
2023/06/14 09:55:40;;;;;;;0.40;0.40;;;21.00;98.30;;;;;;4386250;32;20109;-75
2023/06/14 09:58:07;;;;;;;5.97;0.90;;;21.10;98.40;;;;;;4389871;32;20438;-77
2023/06/14 10:00:34;;;;;;;0.40;0.40;;;21.20;98.60;;;;;;4404135;32;20126;-76
2023/06/14 10:03:05;;;;;;;0.43;0.43;;;21.40;97.70;;;;;;4404261;32;20419;-75
2023/06/14 10:05:30;;;;;;;;;;;21.30;97.20;;;;;;4400683;32;20549;-76
2023/06/14 10:08:02;;;;;;;3.53;1.75;;;21.20;97.10;;;;;;4394789;32;19960;-77
2023/06/14 10:10:27;;;;;;;0.35;0.35;;;21.20;96.90;;;;;;4381261;32;20247;-77
2023/06/14 10:12:54;;;;;;;0.85;0.40;;;21.10;96.80;;;;;;4387619;32;20339;-76
2023/06/14 10:15:31;;;;;;;0.40;0.40;;;21.20;97.00;;;;;;4384023;32;20074;-76
2023/06/14 10:18:06;;;;;;;0.50;0.50;;;21.30;96.80;;;;;;4376904;32;20164;-74
2023/06/14 10:20:51;;;;;;;0.40;0.40;;;21.20;96.70;;;;;;4389846;32;20184;-76
2023/06/14 10:23:21;;;;;;;2.37;1.00;;;21.40;96.20;;;;;;4393145;32;20509;-74
2023/06/14 10:25:50;;;;;;;0.40;0.40;;;21.40;96.40;;;;;;4389870;32;20265;-75
2023/06/14 10:28:18;;;;;;;0.20;0.20;;;21.40;96.40;;;;;;4393694;32;20521;-75
2023/06/14 10:31:12;;;;;;;0.40;0.40;;;21.30;95.40;;;;;;4380947;32;20459;-76
2023/06/14 10:33:56;;;;;;;2.55;1.10;;;21.30;95.90;;;;;;4388119;32;20548;-76
2023/06/14 10:36:26;;;;;;;4.22;1.12;;;21.40;96.10;;;;;;4391970;32;20097;-75
2023/06/14 10:39:03;;;;;;;0.40;0.40;;;21.40;95.80;;;;;;4400632;32;20439;-77
2023/06/14 10:41:32;;;;;;;0.77;0.50;;;21.40;95.90;;;;;;4395638;32;20643;-76
2023/06/14 10:44:15;;;;;;;1.10;0.75;;;21.40;95.50;;;;;;4401552;32;20208;-76
2023/06/14 10:46:46;;;;;;;0.40;0.40;;;21.30;95.60;;;;;;4402945;32;20117;-76
2023/06/14 10:49:18;;;;;;;0.40;0.40;;;21.20;95.40;;;;;;4403046;32;20163;-76
2023/06/14 10:51:52;;;;;;;2.25;0.60;;;21.20;95.40;;;;;;4391016;32;21989;-75
2023/06/14 10:54:21;;;;;;;0.88;0.60;;;21.20;95.40;;;;;;4392773;32;20115;-75
2023/06/14 10:56:48;;;;;;;0.40;0.40;;;21.20;95.70;;;;;;4395591;32;20318;-76
2023/06/14 10:59:15;;;;;;;0.50;0.50;;;21.40;95.70;;;;;;4394712;32;20092;-76
2023/06/14 11:02:06;;;;;;;0.40;0.40;;;21.70;95.70;;;;;;4398176;32;20082;-77
2023/06/14 11:04:59;;;;;;;0.62;0.62;;;22.00;95.20;;;;;;4395023;32;21093;-77
2023/06/14 11:07:48;;;;;;;0.75;0.75;;;22.00;94.70;;;;;;4385206;32;20153;-76
2023/06/14 11:10:37;;;;;;;0.40;0.40;;;22.00;94.80;;;;;;4397794;32;20180;-76
2023/06/14 11:13:03;;;;;;;4.72;1.90;;;22.00;95.00;;;;;;4372063;32;20467;-76
2023/06/14 11:15:30;;;;;;;0.20;0.20;;;22.00;94.70;;;;;;4391477;32;20955;-76
2023/06/14 11:17:57;;;;;;;0.73;0.68;;;22.00;94.60;;;;;;4396283;32;20629;-76
2023/06/14 11:20:26;;;;;;;0.22;0.22;;;22.10;94.20;;;;;;4390025;32;20113;-75
2023/06/14 11:22:52;;;;;;;11.65;1.33;;;22.10;93.50;;;;;;4390672;32;20452;-76
2023/06/14 11:25:18;;;;;;;3.22;0.60;;;22.10;93.80;;;;;;4397703;32;20438;-75
2023/06/14 11:27:44;;;;;;;0.75;0.52;;;22.10;93.90;;;;;;4394838;32;20088;-76
2023/06/14 11:30:11;;;;;;;0.28;0.28;;;22.10;94.10;;;;;;4401070;32;20087;-76
2023/06/14 11:32:38;;;;;;;15.68;0.57;;;22.20;94.10;;;;;;4399499;32;20101;-76
2023/06/14 11:35:05;;;;;;;4.30;0.90;;;22.50;94.00;;;;;;4397904;32;20136;-77
2023/06/14 11:37:33;;;;;;;0.30;0.30;;;22.60;93.80;;;;;;4395808;32;20150;-77
2023/06/14 11:39:59;;;;;;;2.05;1.17;;;22.60;93.20;;;;;;4401982;32;20089;-77
2023/06/14 11:42:26;;;;;;;2.15;0.57;;;22.80;92.50;;;;;;4396105;32;20868;-77
2023/06/14 11:44:53;;;;;;;0.28;0.28;;;23.10;92.10;;;;;;4321247;32;2178254;-77
2023/06/14 11:47:31;;;;;;;0.32;0.32;;;23.50;91.90;;;;;;4396768;32;20389;-77
2023/06/14 11:49:59;;;;;;;1.35;0.82;;;23.70;90.70;;;;;;4405057;32;20191;-78
2023/06/14 11:52:24;;;;;;;0.22;0.22;;;23.70;88.50;;;;;;4401785;32;20144;-77
2023/06/14 11:54:50;;;;;;;1.33;0.95;;;23.50;90.20;;;;;;4393169;32;20160;-76
2023/06/14 11:57:18;;;;;;;1.75;0.75;;;23.40;90.50;;;;;;4397312;32;20089;-77
2023/06/14 11:59:44;;;;;;;0.20;0.20;;;23.30;90.40;;;;;;4394855;32;20089;-77
2023/06/14 12:02:15;;;;;;;0.62;0.62;;;23.30;90.20;;;;;;4396249;32;20086;-77
2023/06/14 12:04:41;;;;;;;0.98;0.55;;;23.30;89.20;;;;;;4394815;32;20116;-77
2023/06/14 12:07:14;;;;;;;0.37;0.37;;;23.30;87.00;;;;;;4392353;32;20640;-76
2023/06/14 12:09:43;;;;;;;0.30;0.30;;;23.30;88.30;;;;;;4399926;32;20078;-76
2023/06/14 12:12:12;;;;;;;0.20;0.20;;;23.40;88.70;;;;;;4397886;32;20073;-77
2023/06/14 12:14:42;;;;;;;0.30;0.30;;;23.50;88.60;;;;;;4401313;32;20444;-77
2023/06/14 12:17:07;;;;;;;0.65;0.45;;;23.60;88.30;;;;;;4404302;32;20153;-77
2023/06/14 12:19:40;;;;;;;0.32;0.32;;;23.70;90.00;;;;;;4402461;32;20274;-76
2023/06/14 12:22:09;;;;;;;0.40;0.40;;;23.90;89.00;;;;;;4395440;32;20648;-77
2023/06/14 12:24:35;;;;;;;0.35;0.30;;;24.10;88.30;;;;;;4398554;32;22176;-77
2023/06/14 12:27:04;;;;;;;0.32;0.32;;;24.30;86.70;;;;;;4401623;32;20062;-77
2023/06/14 12:29:31;;;;;;;0.73;0.45;;;24.90;84.20;;;;;;4400194;32;20170;-78
2023/06/14 12:31:57;;;;;;;0.30;0.30;;;25.50;81.60;;;;;;4397231;32;20094;-78
2023/06/14 12:34:23;;;;;;;0.22;0.22;;;26.10;81.70;;;;;;4393676;32;20423;-76
2023/06/14 12:36:51;;;;;;;0.17;0.17;;;26.60;78.80;;;;;;4402502;32;20115;-77
2023/06/14 12:39:17;;;;;;;3.33;1.58;;;27.30;77.50;;;;;;4407072;32;20089;-76
2023/06/14 12:41:43;;;;;;;3.60;1.12;;;28.00;75.60;;;;;;4405351;32;20069;-76
2023/06/14 12:44:09;;;;;;;0.37;0.37;;;28.70;74.10;;;;;;4404164;32;20197;-76
2023/06/14 12:46:36;;;;;;;0.65;0.20;;;29.30;71.50;;;;;;4405593;32;20110;-76
2023/06/14 12:49:04;;;;;;;1.08;0.60;;;29.70;70.00;;;;;;4405715;32;20061;-76